Terminal Aerodrome Forecast
Issued by NWS Louisville, KY

Home | Current Version | Previous Version | Text Only | Print | Product List | Glossary On
Versions: 1 2 3 4 5 6 7 8 9 10 11 12 13 14 15 16 17 18 19 20 21 22 23
374
FTUS43 KLMK 201720
TAFLEX
TAF
KLEX 201720Z 2018/2118 21007KT P6SM SCT250
     FM210000 VRB03KT P6SM SCT250
      TEMPO 2108/2112 5SM BR
     FM211200 20005KT P6SM BKN250=

USA.gov is the U.S. government's official web portal to all federal, state and local government web resources and services.